Komokwa — ZJL8536 — position and weather

sailwx.info

Track history (hours):
 
Tides and Currents Weather Stations Pressure Air Temp Water Temp Dewpoint Dewpoint Depression Visibility Wind Speed Wind Dir Waves Ship Positions

Komokwa

Last reported at 2017-Oct-18 08:36 UTC. Time now 2017-Oct-18 09:07 UTC.
Position N 37°14' W 123°17'.

Length 37 m; draft 3 m.

Type: Ship. MMSI: 378111827.

Date/timePositionNaut miles runAvg speedWind from/ knotsBaromVisibWave heightAir tempDewpointWater temp
2017-Oct-18 08:36N 37°14' W 123°17'17 9.5
2017-Oct-18 06:47N 37°29' W 123°28'4 9.4
2017-Oct-18 06:24N 37°32' W 123°31'5 9.8
2017-Oct-18 05:51N 37°37' W 123°34'410.4
2017-Oct-18 05:29N 37°40' W 123°36'510.0
2017-Oct-18 05:00N 37°44' W 123°39'5 9.6
2017-Oct-18 04:30N 37°48' W 123°42'5 9.7
2017-Oct-18 04:00N 37°53' W 123°45'5 9.8
2017-Oct-18 03:30N 37°57' W 123°48'510.1
2017-Oct-18 03:00N 38°02' W 123°50'510.4
2017-Oct-18 02:30N 38°07' W 123°52'510.4
2017-Oct-18 02:00N 38°12' W 123°55'510.2
2017-Oct-18 01:30N 38°16' W 123°57'510.1
2017-Oct-18 01:00N 38°21' W 123°59'510.0
2017-Oct-18 00:30N 38°26' W 124°02'5 9.9
2017-Oct-18 00:00N 38°30' W 124°05'372 9.6
2017-Oct-16 09:17N 44°39' W 125°07'22 9.8
2017-Oct-16 07:02N 45°01' W 125°06'1 9.8
2017-Oct-16 06:58N 45°01' W 125°06'4 9.7
2017-Oct-16 06:30N 45°06' W 125°05'5 9.9
2017-Oct-16 06:00N 45°11' W 125°05'5 9.7
2017-Oct-16 05:30N 45°16' W 125°06'5 9.7
2017-Oct-16 05:00N 45°20' W 125°07'5 9.6
2017-Oct-16 04:30N 45°25' W 125°07'5 9.7
2017-Oct-16 03:57N 45°31' W 125°08'4 9.9
2017-Oct-16 03:30N 45°35' W 125°08'5 9.7
2017-Oct-16 03:00N 45°40' W 125°08'5 9.8
2017-Oct-16 02:30N 45°45' W 125°08'5 9.8
2017-Oct-16 02:01N 45°50' W 125°08'5 9.5
2017-Oct-16 01:29N 45°55' W 125°08'5 9.7
2017-Oct-16 01:00N 45°59' W 125°08'5 9.6
2017-Oct-16 00:30N 46°04' W 125°09'5 9.8
2017-Oct-16 00:01N 46°09' W 125°08'510.1
2017-Oct-15 23:30N 46°14' W 125°08'510.4
2017-Oct-15 23:01N 46°19' W 125°08'510.1
2017-Oct-15 22:30N 46°24' W 125°08'510.2
2017-Oct-15 22:01N 46°29' W 125°08'510.2
2017-Oct-15 21:31N 46°34' W 125°08'510.2
2017-Oct-15 21:00N 46°40' W 125°08'510.2
2017-Oct-15 20:29N 46°45' W 125°09'510.1
2017-Oct-15 20:00N 46°50' W 125°09'6 9.9
2017-Oct-15 19:25N 46°56' W 125°09'96 9.4
2017-Oct-15 09:10N 48°31' W 124°57'2 9.7
2017-Oct-15 08:58N 48°31' W 124°54'510.5
2017-Oct-15 08:31N 48°31' W 124°47'510.7
2017-Oct-15 08:01N 48°30' W 124°39'5 9.9
2017-Oct-15 07:31N 48°28' W 124°33'510.0
2017-Oct-15 07:00N 48°26' W 124°25'5 9.8
2017-Oct-15 06:30N 48°24' W 124°18'5 9.9
2017-Oct-15 06:00N 48°22' W 124°12'5 9.6
2017-Oct-15 05:29N 48°20' W 124°05'5 9.6
2017-Oct-15 04:58N 48°18' W 123°58'610.6
2017-Oct-15 04:25N 48°17' W 123°49'511.1
2017-Oct-15 03:57N 48°16' W 123°42'510.7
2017-Oct-15 03:29N 48°16' W 123°34'5 9.4
2017-Oct-15 02:57N 48°18' W 123°28'4 9.9
2017-Oct-15 02:31N 48°22' W 123°25'510.1
2017-Oct-15 02:01N 48°23' W 123°18'5 9.1
2017-Oct-15 01:31N 48°26' W 123°12'510.3
2017-Oct-15 01:01N 48°31' W 123°13'611.1
2017-Oct-15 00:31N 48°37' W 123°14'6 9.8
2017-Oct-14 23:53N 48°43' W 123°13'410.5
2017-Oct-14 23:29N 48°45' W 123°08'510.5
2017-Oct-14 23:00N 48°47' W 123°01'510.5
2017-Oct-14 22:29N 48°52' W 123°06'510.4
2017-Oct-14 22:00N 48°55' W 123°11'510.0
2017-Oct-14 21:30N 48°59' W 123°17'5 9.8
2017-Oct-14 21:00N 49°02' W 123°22'4 8.9
2017-Oct-14 20:30N 49°07' W 123°24'4 8.6
2017-Oct-14 20:01N 49°11' W 123°23'4 8.4
2017-Oct-14 19:31N 49°15' W 123°22'4 7.9
2017-Oct-14 19:01N 49°18' W 123°18'1 1.2
2017-Oct-14 18:31N 49°19' W 123°18'4 7.9
2017-Oct-14 18:01N 49°19' W 123°12'3 6.6
2017-Oct-14 17:31N 49°18' W 123°07'1 1.1
2017-Oct-14 16:59N 49°18' W 123°07'0 0.1
2017-Oct-14 16:29N 49°18' W 123°07'0 0.0
2017-Oct-14 15:59N 49°18' W 123°07'0 0.6
2017-Oct-14 15:29N 49°18' W 123°08'0 0.0
2017-Oct-14 14:59N 49°18' W 123°08'0 0.0
2017-Oct-14 14:29N 49°18' W 123°08'0 0.0
2017-Oct-14 13:59N 49°18' W 123°08'0 0.0
2017-Oct-14 13:29N 49°18' W 123°08'0 0.0
2017-Oct-14 12:59N 49°18' W 123°08'0 0.0
2017-Oct-14 12:29N 49°18' W 123°08'0 0.0
2017-Oct-14 11:59N 49°18' W 123°08'0 0.0
2017-Oct-14 11:29N 49°18' W 123°08'0 0.0
2017-Oct-14 10:59N 49°18' W 123°08'0 0.0
2017-Oct-14 10:29N 49°18' W 123°08'0 0.0
2017-Oct-14 09:59N 49°18' W 123°08'0 0.1
2017-Oct-14 09:29N 49°18' W 123°08'0 0.1
2017-Oct-14 08:59N 49°18' W 123°08'0 0.0
2017-Oct-14 08:29N 49°18' W 123°08'0 0.0
2017-Oct-14 07:59N 49°18' W 123°08'0 0.0
2017-Oct-14 07:29N 49°18' W 123°08'0 0.0
2017-Oct-14 06:59N 49°18' W 123°08'0 0.0
2017-Oct-14 06:29N 49°18' W 123°08'0 0.0
2017-Oct-14 05:59N 49°18' W 123°08'0 0.0
2017-Oct-14 05:29N 49°18' W 123°08'0 0.0
2017-Oct-14 04:59N 49°18' W 123°08'0 0.0
2017-Oct-14 04:29N 49°18' W 123°08'0 0.0
2017-Oct-14 03:53N 49°18' W 123°08'0 0.0
2017-Oct-14 03:29N 49°18' W 123°08'0 0.0
2017-Oct-14 02:59N 49°18' W 123°08'0 0.0
2017-Oct-14 02:26N 49°18' W 123°08'0 0.0
2017-Oct-14 01:59N 49°18' W 123°08'0 0.0
2017-Oct-14 01:29N 49°18' W 123°08'0 0.0
2017-Oct-14 00:59N 49°18' W 123°08'0 0.0
2017-Oct-14 00:29N 49°18' W 123°08'0 0.0
2017-Oct-13 23:59N 49°18' W 123°08'0 0.0
2017-Oct-13 23:29N 49°18' W 123°08'0 0.0
2017-Oct-13 22:59N 49°18' W 123°08'0 0.0
2017-Oct-13 22:26N 49°18' W 123°08'0 0.0
2017-Oct-13 21:56N 49°18' W 123°08'0 0.0
2017-Oct-13 21:29N 49°18' W 123°08'0 0.0
2017-Oct-13 20:59N 49°18' W 123°08'0 0.0
2017-Oct-13 20:26N 49°18' W 123°08'0 0.0
2017-Oct-13 19:59N 49°18' W 123°08'0 0.0
2017-Oct-13 19:26N 49°18' W 123°08'0 0.0
2017-Oct-13 18:59N 49°18' W 123°08'0 0.0
2017-Oct-13 18:29N 49°18' W 123°08'0 0.0
2017-Oct-13 17:59N 49°18' W 123°08'0 0.0
2017-Oct-13 17:29N 49°18' W 123°08'0 0.0
2017-Oct-13 16:59N 49°18' W 123°08'0 0.0
2017-Oct-13 16:29N 49°18' W 123°08'0 0.0
2017-Oct-13 15:59N 49°18' W 123°08'0 0.0
2017-Oct-13 15:29N 49°18' W 123°08'0 0.0
2017-Oct-13 14:59N 49°18' W 123°08'0 0.0
2017-Oct-13 14:29N 49°18' W 123°08'0 0.0
2017-Oct-13 13:59N 49°18' W 123°08'0 0.0
2017-Oct-13 13:29N 49°18' W 123°08'0 0.0
2017-Oct-13 12:59N 49°18' W 123°08'0 0.0
2017-Oct-13 12:29N 49°18' W 123°08'0 0.0
2017-Oct-13 11:59N 49°18' W 123°08'0 0.0
2017-Oct-13 11:29N 49°18' W 123°08'0 0.0
2017-Oct-13 10:59N 49°18' W 123°08'0 0.0
2017-Oct-13 10:29N 49°18' W 123°08'0 0.0
2017-Oct-13 09:59N 49°18' W 123°08'0 0.0
2017-Oct-13 09:29N 49°18' W 123°08'0 0.0
2017-Oct-13 08:59N 49°18' W 123°08'0 0.0
2017-Oct-13 08:29N 49°18' W 123°08'0 0.0
2017-Oct-13 07:59N 49°18' W 123°08'0 0.0
2017-Oct-13 07:29N 49°18' W 123°08'0 0.0
2017-Oct-13 06:59N 49°18' W 123°08'0 0.0
2017-Oct-13 06:29N 49°18' W 123°08'0 0.0
2017-Oct-13 05:59N 49°18' W 123°08'0 0.0
2017-Oct-13 05:29N 49°18' W 123°08'0 0.0
2017-Oct-13 04:59N 49°18' W 123°08'0 0.0
2017-Oct-13 04:29N 49°18' W 123°08'0 0.0
2017-Oct-13 03:59N 49°18' W 123°08'0 0.0
2017-Oct-13 03:29N 49°18' W 123°08'0 0.0
2017-Oct-13 02:59N 49°18' W 123°08'0 0.0
2017-Oct-13 02:29N 49°18' W 123°08'0 0.0
2017-Oct-13 01:59N 49°18' W 123°08'0 0.0
2017-Oct-13 01:29N 49°18' W 123°08'0 0.0
2017-Oct-13 00:59N 49°18' W 123°08'0 0.0
2017-Oct-13 00:29N 49°18' W 123°08'0 0.0
2017-Oct-12 23:59N 49°18' W 123°08'0 0.0
2017-Oct-12 23:29N 49°18' W 123°08'0 0.0
2017-Oct-12 22:59N 49°18' W 123°08'0 0.0
2017-Oct-12 22:29N 49°18' W 123°08'0 0.0
2017-Oct-12 21:59N 49°18' W 123°08'0 0.0
2017-Oct-12 21:29N 49°18' W 123°08'0 0.0
2017-Oct-12 20:56N 49°18' W 123°08'0 0.0
2017-Oct-12 20:29N 49°18' W 123°08'0 0.0
2017-Oct-12 19:59N 49°18' W 123°08'0 0.0
2017-Oct-12 19:29N 49°18' W 123°08'0 0.0
2017-Oct-12 18:59N 49°18' W 123°08'0 0.0
2017-Oct-12 18:29N 49°18' W 123°08'0 0.0
2017-Oct-12 17:59N 49°18' W 123°08'0 0.0
2017-Oct-12 17:29N 49°18' W 123°08'0 0.0
2017-Oct-12 16:59N 49°18' W 123°08'0 0.0
2017-Oct-12 16:29N 49°18' W 123°08'0 0.0
2017-Oct-12 15:59N 49°18' W 123°08'0 0.0
2017-Oct-12 15:29N 49°18' W 123°08'0 0.0
2017-Oct-12 14:59N 49°18' W 123°08'0 0.0
2017-Oct-12 14:29N 49°18' W 123°08'0 0.0
2017-Oct-12 13:59N 49°18' W 123°08'0 0.0
2017-Oct-12 13:29N 49°18' W 123°08'0 0.0
2017-Oct-12 12:59N 49°18' W 123°08'0 0.0
2017-Oct-12 12:29N 49°18' W 123°08'0 0.0
2017-Oct-12 11:59N 49°18' W 123°08'0 0.0
2017-Oct-12 11:29N 49°18' W 123°08'0 0.0
2017-Oct-12 10:59N 49°18' W 123°08'0 0.0
2017-Oct-12 10:29N 49°18' W 123°08'0 0.0
2017-Oct-12 09:59N 49°18' W 123°08'0 0.0
2017-Oct-12 09:29N 49°18' W 123°08'0 0.0
2017-Oct-12 08:59N 49°18' W 123°08'0 0.0
2017-Oct-12 08:29N 49°18' W 123°08'0 0.0
2017-Oct-12 07:59N 49°18' W 123°08'0 0.0
2017-Oct-12 07:29N 49°18' W 123°08'0 0.0
2017-Oct-12 06:59N 49°18' W 123°08'0 0.0
2017-Oct-12 06:29N 49°18' W 123°08'0 0.0
2017-Oct-12 05:59N 49°18' W 123°08'0 0.0
2017-Oct-12 05:29N 49°18' W 123°08'0 0.0
2017-Oct-12 04:59N 49°18' W 123°08'0 0.0
2017-Oct-12 04:29N 49°18' W 123°08'0 0.0
2017-Oct-12 03:59N 49°18' W 123°08'0 0.0
2017-Oct-12 03:29N 49°18' W 123°08'0 0.0
2017-Oct-12 02:59N 49°18' W 123°08'0 0.0
2017-Oct-12 02:29N 49°18' W 123°08'0 0.0
2017-Oct-12 01:59N 49°18' W 123°08'0 0.0
2017-Oct-12 01:29N 49°18' W 123°08'0 0.0
2017-Oct-12 00:59N 49°18' W 123°08'0 0.0
2017-Oct-12 00:29N 49°18' W 123°08'0 0.0
2017-Oct-11 23:59N 49°18' W 123°08'0 0.0
2017-Oct-11 23:29N 49°18' W 123°08'0 0.0
2017-Oct-11 22:56N 49°18' W 123°08'0 0.0
2017-Oct-11 22:29N 49°18' W 123°08'0 0.0
2017-Oct-11 21:59N 49°18' W 123°08'0 0.0
2017-Oct-11 21:29N 49°18' W 123°08'0 0.0
2017-Oct-11 20:59N 49°18' W 123°08'0 0.0
2017-Oct-11 20:26N 49°18' W 123°08'0 0.0
2017-Oct-11 19:59N 49°18' W 123°08'0 0.0
2017-Oct-11 19:29N 49°18' W 123°08'0 0.0
2017-Oct-11 18:59N 49°18' W 123°08'0 0.0
2017-Oct-11 18:29N 49°18' W 123°08'0 0.0
2017-Oct-11 17:59N 49°18' W 123°08'0 0.0
2017-Oct-11 17:29N 49°18' W 123°08'0 0.0
2017-Oct-11 16:59N 49°18' W 123°08'0 0.0
2017-Oct-10 23:50N 49°18' W 123°08'0 0.0
2017-Oct-10 23:29N 49°18' W 123°08'0 0.0
2017-Oct-10 22:56N 49°18' W 123°08'0 0.0
2017-Oct-10 22:29N 49°18' W 123°08'0 0.0
2017-Oct-10 21:59N 49°18' W 123°08'0 0.0
2017-Oct-10 21:29N 49°18' W 123°08'0 0.0
2017-Oct-10 20:59N 49°18' W 123°08'0 0.0
2017-Oct-10 20:29N 49°18' W 123°08'0 0.0
2017-Oct-10 19:59N 49°18' W 123°08'0 0.0
2017-Oct-10 19:29N 49°18' W 123°08'0 0.0
2017-Oct-10 18:59N 49°18' W 123°08'0 0.0
2017-Oct-10 18:29N 49°18' W 123°08'0 0.0
2017-Oct-10 17:56N 49°18' W 123°08'0 0.0
2017-Oct-10 17:29N 49°18' W 123°08'0 0.0
2017-Oct-10 16:56N 49°18' W 123°08'0 0.0
2017-Oct-10 16:29N 49°18' W 123°08'0 0.0
2017-Oct-10 15:59N 49°18' W 123°08'0 0.0
2017-Oct-10 15:29N 49°18' W 123°08'0 0.0
2017-Oct-10 14:59N 49°18' W 123°08'0 0.0
2017-Oct-10 13:59N 49°18' W 123°08'0 0.0
2017-Oct-10 13:29N 49°18' W 123°08'0 0.0
2017-Oct-10 12:59N 49°18' W 123°08'0 0.0
2017-Oct-10 12:23N 49°18' W 123°08'0 0.0
2017-Oct-10 11:59N 49°18' W 123°08'0 0.0
2017-Oct-10 11:29N 49°18' W 123°08'0 0.0
2017-Oct-10 10:56N 49°18' W 123°08'0 0.0
2017-Oct-10 10:29N 49°18' W 123°08'0 0.0
2017-Oct-10 09:59N 49°18' W 123°08'0 0.0
2017-Oct-10 09:29N 49°18' W 123°08'0 0.0
2017-Oct-10 08:59N 49°18' W 123°08'0 0.0
2017-Oct-10 08:29N 49°18' W 123°08'0 0.0
2017-Oct-10 07:59N 49°18' W 123°08'0 0.0
2017-Oct-10 07:29N 49°18' W 123°08'0 0.0
2017-Oct-10 06:59N 49°18' W 123°08'0 0.0
2017-Oct-10 06:29N 49°18' W 123°08'0 0.0
2017-Oct-10 05:59N 49°18' W 123°08'0 0.0
2017-Oct-10 05:29N 49°18' W 123°08'0 0.0
2017-Oct-10 04:59N 49°18' W 123°08'0 0.0
2017-Oct-10 04:29N 49°18' W 123°08'0 0.0
2017-Oct-10 03:59N 49°18' W 123°08'0 0.0
2017-Oct-10 03:26N 49°18' W 123°08'0 0.0
2017-Oct-10 02:59N 49°18' W 123°08'0 0.0
2017-Oct-10 02:20N 49°18' W 123°08'0 0.0
2017-Oct-10 01:59N 49°18' W 123°08'0 0.0
2017-Oct-10 01:29N 49°18' W 123°08'0 0.0
2017-Oct-10 00:59N 49°18' W 123°08'0 0.0
2017-Oct-10 00:26N 49°18' W 123°08'0 0.0
2017-Oct-09 23:56N 49°18' W 123°08'0 0.0
2017-Oct-09 23:29N 49°18' W 123°08'0 0.0
2017-Oct-09 22:59N 49°18' W 123°08'0 0.0
2017-Oct-09 22:23N 49°18' W 123°08'0 0.0
2017-Oct-09 21:59N 49°18' W 123°08'0 0.0
2017-Oct-09 21:29N 49°18' W 123°08'0 0.0
2017-Oct-09 20:59N 49°18' W 123°08'0 0.0
2017-Oct-09 20:29N 49°18' W 123°08'0 0.0
2017-Oct-09 19:59N 49°18' W 123°08'0 0.0
2017-Oct-09 19:29N 49°18' W 123°08'0 0.0
2017-Oct-09 18:59N 49°18' W 123°08'0 0.0
2017-Oct-09 18:29N 49°18' W 123°08'0 0.0
2017-Oct-09 17:59N 49°18' W 123°08'0 0.0
2017-Oct-09 17:29N 49°18' W 123°08'0 0.0
2017-Oct-09 16:59N 49°18' W 123°08'0 0.0
2017-Oct-09 16:29N 49°18' W 123°08'0 0.0
2017-Oct-09 15:59N 49°18' W 123°08'0 0.0
2017-Oct-09 15:29N 49°18' W 123°08'0 0.0
2017-Oct-09 14:59N 49°18' W 123°08'0 0.0
2017-Oct-09 14:29N 49°18' W 123°08'0 0.0
2017-Oct-09 13:59N 49°18' W 123°08'0 0.0
2017-Oct-09 13:29N 49°18' W 123°08'0 0.0
2017-Oct-09 12:59N 49°18' W 123°08'0 0.0
2017-Oct-09 12:29N 49°18' W 123°08'0 0.0
2017-Oct-09 11:59N 49°18' W 123°08'0 0.0
2017-Oct-09 11:29N 49°18' W 123°08'0 0.0
2017-Oct-09 10:59N 49°18' W 123°08'0 0.0
2017-Oct-09 10:29N 49°18' W 123°08'0 0.0
2017-Oct-09 09:59N 49°18' W 123°08'0 0.0
2017-Oct-09 09:29N 49°18' W 123°08'0 0.0
2017-Oct-09 08:59N 49°18' W 123°08'0 0.0
2017-Oct-09 08:29N 49°18' W 123°08'0 0.0
2017-Oct-09 07:59N 49°18' W 123°08'0 0.0
2017-Oct-09 07:29N 49°18' W 123°08'0 0.0
2017-Oct-09 06:59N 49°18' W 123°08'0 0.0
2017-Oct-09 06:29N 49°18' W 123°08'0 0.0
2017-Oct-09 05:59N 49°18' W 123°08'0 0.0
2017-Oct-09 05:29N 49°18' W 123°08'0 0.0
2017-Oct-09 04:53N 49°18' W 123°08'0 0.0
2017-Oct-09 04:29N 49°18' W 123°08'0 0.0
2017-Oct-09 03:59N 49°18' W 123°08'0 0.0
2017-Oct-09 03:29N 49°18' W 123°08'0 0.0
2017-Oct-09 02:59N 49°18' W 123°08'0 0.0
2017-Oct-09 02:29N 49°18' W 123°08'0 0.0
2017-Oct-09 01:59N 49°18' W 123°08'0 0.0
2017-Oct-09 01:26N 49°18' W 123°08'0 0.0
2017-Oct-09 00:56N 49°18' W 123°08'0 0.0
2017-Oct-09 00:26N 49°18' W 123°08'0 0.0
2017-Oct-08 23:59N 49°18' W 123°08'0 0.0
2017-Oct-08 23:29N 49°18' W 123°08'0 0.0
2017-Oct-08 22:59N 49°18' W 123°08'0 0.0
2017-Oct-08 22:29N 49°18' W 123°08'0 0.0
2017-Oct-08 21:59N 49°18' W 123°08'0 0.0
2017-Oct-08 21:29N 49°18' W 123°08'0 0.0
2017-Oct-08 20:59N 49°18' W 123°08'0 0.0
2017-Oct-08 20:29N 49°18' W 123°08'0 0.0
2017-Oct-08 19:59N 49°18' W 123°08'0 0.0
2017-Oct-08 19:29N 49°18' W 123°08'0 0.0
2017-Oct-08 18:59N 49°18' W 123°08'0 0.0
2017-Oct-08 18:29N 49°18' W 123°08'0 0.0
2017-Oct-08 17:59N 49°18' W 123°08'0 0.0
2017-Oct-08 17:29N 49°18' W 123°08'0 0.0
2017-Oct-08 16:56N 49°18' W 123°08'0 0.0
2017-Oct-08 16:29N 49°18' W 123°08'0 0.0
2017-Oct-08 15:59N 49°18' W 123°08'0 0.0
2017-Oct-08 15:29N 49°18' W 123°08'0 0.0
2017-Oct-08 14:59N 49°18' W 123°08'0 0.0
2017-Oct-08 14:29N 49°18' W 123°08'0 0.0
2017-Oct-08 13:59N 49°18' W 123°08'0 0.0
2017-Oct-08 13:29N 49°18' W 123°08'0 0.0
2017-Oct-08 12:59N 49°18' W 123°08'0 0.0
2017-Oct-08 12:29N 49°18' W 123°08'0 0.0
2017-Oct-08 11:59N 49°18' W 123°08'0 0.0
2017-Oct-08 11:29N 49°18' W 123°08'0 0.0
2017-Oct-08 10:59N 49°18' W 123°08'0 0.0
2017-Oct-08 10:29N 49°18' W 123°08'0 0.0
2017-Oct-08 09:59N 49°18' W 123°08'0 0.0
2017-Oct-08 09:29N 49°18' W 123°08'0 0.0
2017-Oct-08 08:59N 49°18' W 123°08'  
Track history (hours):
 
Tides and Currents Weather Stations Pressure Air Temp Water Temp Dewpoint Dewpoint Depression Visibility Wind Speed Wind Dir Waves Ship Positions

Komokwa

Last reported at 2017-Oct-18 08:36 UTC. Time now 2017-Oct-18 09:07 UTC.
Position N 37°14' W 123°17'.

Length 37 m; draft 3 m.

Type: Ship. MMSI: 378111827.

Date/timePositionNaut miles runAvg speedWind from/ knotsBaromVisibWave heightAir tempDewpointWater temp
2017-Oct-18 08:36N 37°14' W 123°17'17 9.5
2017-Oct-18 06:47N 37°29' W 123°28'4 9.4
2017-Oct-18 06:24N 37°32' W 123°31'5 9.8
2017-Oct-18 05:51N 37°37' W 123°34'410.4
2017-Oct-18 05:29N 37°40' W 123°36'510.0
2017-Oct-18 05:00N 37°44' W 123°39'5 9.6
2017-Oct-18 04:30N 37°48' W 123°42'5 9.7
2017-Oct-18 04:00N 37°53' W 123°45'5 9.8
2017-Oct-18 03:30N 37°57' W 123°48'510.1
2017-Oct-18 03:00N 38°02' W 123°50'510.4
2017-Oct-18 02:30N 38°07' W 123°52'510.4
2017-Oct-18 02:00N 38°12' W 123°55'510.2
2017-Oct-18 01:30N 38°16' W 123°57'510.1
2017-Oct-18 01:00N 38°21' W 123°59'510.0
2017-Oct-18 00:30N 38°26' W 124°02'5 9.9
2017-Oct-18 00:00N 38°30' W 124°05'372 9.6
2017-Oct-16 09:17N 44°39' W 125°07'22 9.8
2017-Oct-16 07:02N 45°01' W 125°06'1 9.8
2017-Oct-16 06:58N 45°01' W 125°06'4 9.7
2017-Oct-16 06:30N 45°06' W 125°05'5 9.9
2017-Oct-16 06:00N 45°11' W 125°05'5 9.7
2017-Oct-16 05:30N 45°16' W 125°06'5 9.7
2017-Oct-16 05:00N 45°20' W 125°07'5 9.6
2017-Oct-16 04:30N 45°25' W 125°07'5 9.7
2017-Oct-16 03:57N 45°31' W 125°08'4 9.9
2017-Oct-16 03:30N 45°35' W 125°08'5 9.7
2017-Oct-16 03:00N 45°40' W 125°08'5 9.8
2017-Oct-16 02:30N 45°45' W 125°08'5 9.8
2017-Oct-16 02:01N 45°50' W 125°08'5 9.5
2017-Oct-16 01:29N 45°55' W 125°08'5 9.7
2017-Oct-16 01:00N 45°59' W 125°08'5 9.6
2017-Oct-16 00:30N 46°04' W 125°09'5 9.8
2017-Oct-16 00:01N 46°09' W 125°08'510.1
2017-Oct-15 23:30N 46°14' W 125°08'510.4
2017-Oct-15 23:01N 46°19' W 125°08'510.1
2017-Oct-15 22:30N 46°24' W 125°08'510.2
2017-Oct-15 22:01N 46°29' W 125°08'510.2
2017-Oct-15 21:31N 46°34' W 125°08'510.2
2017-Oct-15 21:00N 46°40' W 125°08'510.2
2017-Oct-15 20:29N 46°45' W 125°09'510.1
2017-Oct-15 20:00N 46°50' W 125°09'6 9.9
2017-Oct-15 19:25N 46°56' W 125°09'96 9.4
2017-Oct-15 09:10N 48°31' W 124°57'2 9.7
2017-Oct-15 08:58N 48°31' W 124°54'510.5
2017-Oct-15 08:31N 48°31' W 124°47'510.7
2017-Oct-15 08:01N 48°30' W 124°39'5 9.9
2017-Oct-15 07:31N 48°28' W 124°33'510.0
2017-Oct-15 07:00N 48°26' W 124°25'5 9.8
2017-Oct-15 06:30N 48°24' W 124°18'5 9.9
2017-Oct-15 06:00N 48°22' W 124°12'5 9.6
2017-Oct-15 05:29N 48°20' W 124°05'5 9.6
2017-Oct-15 04:58N 48°18' W 123°58'610.6
2017-Oct-15 04:25N 48°17' W 123°49'511.1
2017-Oct-15 03:57N 48°16' W 123°42'510.7
2017-Oct-15 03:29N 48°16' W 123°34'5 9.4
2017-Oct-15 02:57N 48°18' W 123°28'4 9.9
2017-Oct-15 02:31N 48°22' W 123°25'510.1
2017-Oct-15 02:01N 48°23' W 123°18'5 9.1
2017-Oct-15 01:31N 48°26' W 123°12'510.3
2017-Oct-15 01:01N 48°31' W 123°13'611.1
2017-Oct-15 00:31N 48°37' W 123°14'6 9.8
2017-Oct-14 23:53N 48°43' W 123°13'410.5
2017-Oct-14 23:29N 48°45' W 123°08'510.5
2017-Oct-14 23:00N 48°47' W 123°01'510.5
2017-Oct-14 22:29N 48°52' W 123°06'510.4
2017-Oct-14 22:00N 48°55' W 123°11'510.0
2017-Oct-14 21:30N 48°59' W 123°17'5 9.8
2017-Oct-14 21:00N 49°02' W 123°22'4 8.9
2017-Oct-14 20:30N 49°07' W 123°24'4 8.6
2017-Oct-14 20:01N 49°11' W 123°23'4 8.4
2017-Oct-14 19:31N 49°15' W 123°22'4 7.9
2017-Oct-14 19:01N 49°18' W 123°18'1 1.2
2017-Oct-14 18:31N 49°19' W 123°18'4 7.9
2017-Oct-14 18:01N 49°19' W 123°12'3 6.6
2017-Oct-14 17:31N 49°18' W 123°07'1 1.1
2017-Oct-14 16:59N 49°18' W 123°07'0 0.1
2017-Oct-14 16:29N 49°18' W 123°07'0 0.0
2017-Oct-14 15:59N 49°18' W 123°07'0 0.6
2017-Oct-14 15:29N 49°18' W 123°08'0 0.0
2017-Oct-14 14:59N 49°18' W 123°08'0 0.0
2017-Oct-14 14:29N 49°18' W 123°08'0 0.0
2017-Oct-14 13:59N 49°18' W 123°08'0 0.0
2017-Oct-14 13:29N 49°18' W 123°08'0 0.0
2017-Oct-14 12:59N 49°18' W 123°08'0 0.0
2017-Oct-14 12:29N 49°18' W 123°08'0 0.0
2017-Oct-14 11:59N 49°18' W 123°08'0 0.0
2017-Oct-14 11:29N 49°18' W 123°08'0 0.0
2017-Oct-14 10:59N 49°18' W 123°08'0 0.0
2017-Oct-14 10:29N 49°18' W 123°08'0 0.0
2017-Oct-14 09:59N 49°18' W 123°08'0 0.1
2017-Oct-14 09:29N 49°18' W 123°08'0 0.1
2017-Oct-14 08:59N 49°18' W 123°08'0 0.0
2017-Oct-14 08:29N 49°18' W 123°08'0 0.0
2017-Oct-14 07:59N 49°18' W 123°08'0 0.0
2017-Oct-14 07:29N 49°18' W 123°08'0 0.0
2017-Oct-14 06:59N 49°18' W 123°08'0 0.0
2017-Oct-14 06:29N 49°18' W 123°08'0 0.0
2017-Oct-14 05:59N 49°18' W 123°08'0 0.0
2017-Oct-14 05:29N 49°18' W 123°08'0 0.0
2017-Oct-14 04:59N 49°18' W 123°08'0 0.0
2017-Oct-14 04:29N 49°18' W 123°08'0 0.0
2017-Oct-14 03:53N 49°18' W 123°08'0 0.0
2017-Oct-14 03:29N 49°18' W 123°08'0 0.0
2017-Oct-14 02:59N 49°18' W 123°08'0 0.0
2017-Oct-14 02:26N 49°18' W 123°08'0 0.0
2017-Oct-14 01:59N 49°18' W 123°08'0 0.0
2017-Oct-14 01:29N 49°18' W 123°08'0 0.0
2017-Oct-14 00:59N 49°18' W 123°08'0 0.0
2017-Oct-14 00:29N 49°18' W 123°08'0 0.0
2017-Oct-13 23:59N 49°18' W 123°08'0 0.0
2017-Oct-13 23:29N 49°18' W 123°08'0 0.0
2017-Oct-13 22:59N 49°18' W 123°08'0 0.0
2017-Oct-13 22:26N 49°18' W 123°08'0 0.0
2017-Oct-13 21:56N 49°18' W 123°08'0 0.0
2017-Oct-13 21:29N 49°18' W 123°08'0 0.0
2017-Oct-13 20:59N 49°18' W 123°08'0 0.0
2017-Oct-13 20:26N 49°18' W 123°08'0 0.0
2017-Oct-13 19:59N 49°18' W 123°08'0 0.0
2017-Oct-13 19:26N 49°18' W 123°08'0 0.0
2017-Oct-13 18:59N 49°18' W 123°08'0 0.0
2017-Oct-13 18:29N 49°18' W 123°08'0 0.0
2017-Oct-13 17:59N 49°18' W 123°08'0 0.0
2017-Oct-13 17:29N 49°18' W 123°08'0 0.0
2017-Oct-13 16:59N 49°18' W 123°08'0 0.0
2017-Oct-13 16:29N 49°18' W 123°08'0 0.0
2017-Oct-13 15:59N 49°18' W 123°08'0 0.0
2017-Oct-13 15:29N 49°18' W 123°08'0 0.0
2017-Oct-13 14:59N 49°18' W 123°08'0 0.0
2017-Oct-13 14:29N 49°18' W 123°08'0 0.0
2017-Oct-13 13:59N 49°18' W 123°08'0 0.0
2017-Oct-13 13:29N 49°18' W 123°08'0 0.0
2017-Oct-13 12:59N 49°18' W 123°08'0 0.0
2017-Oct-13 12:29N 49°18' W 123°08'0 0.0
2017-Oct-13 11:59N 49°18' W 123°08'0 0.0
2017-Oct-13 11:29N 49°18' W 123°08'0 0.0
2017-Oct-13 10:59N 49°18' W 123°08'0 0.0
2017-Oct-13 10:29N 49°18' W 123°08'0 0.0
2017-Oct-13 09:59N 49°18' W 123°08'0 0.0
2017-Oct-13 09:29N 49°18' W 123°08'0 0.0
2017-Oct-13 08:59N 49°18' W 123°08'0 0.0
2017-Oct-13 08:29N 49°18' W 123°08'0 0.0
2017-Oct-13 07:59N 49°18' W 123°08'0 0.0
2017-Oct-13 07:29N 49°18' W 123°08'0 0.0
2017-Oct-13 06:59N 49°18' W 123°08'0 0.0
2017-Oct-13 06:29N 49°18' W 123°08'0 0.0
2017-Oct-13 05:59N 49°18' W 123°08'0 0.0
2017-Oct-13 05:29N 49°18' W 123°08'0 0.0
2017-Oct-13 04:59N 49°18' W 123°08'0 0.0
2017-Oct-13 04:29N 49°18' W 123°08'0 0.0
2017-Oct-13 03:59N 49°18' W 123°08'0 0.0
2017-Oct-13 03:29N 49°18' W 123°08'0 0.0
2017-Oct-13 02:59N 49°18' W 123°08'0 0.0
2017-Oct-13 02:29N 49°18' W 123°08'0 0.0
2017-Oct-13 01:59N 49°18' W 123°08'0 0.0
2017-Oct-13 01:29N 49°18' W 123°08'0 0.0
2017-Oct-13 00:59N 49°18' W 123°08'0 0.0
2017-Oct-13 00:29N 49°18' W 123°08'0 0.0
2017-Oct-12 23:59N 49°18' W 123°08'0 0.0
2017-Oct-12 23:29N 49°18' W 123°08'0 0.0
2017-Oct-12 22:59N 49°18' W 123°08'0 0.0
2017-Oct-12 22:29N 49°18' W 123°08'0 0.0
2017-Oct-12 21:59N 49°18' W 123°08'0 0.0
2017-Oct-12 21:29N 49°18' W 123°08'0 0.0
2017-Oct-12 20:56N 49°18' W 123°08'0 0.0
2017-Oct-12 20:29N 49°18' W 123°08'0 0.0
2017-Oct-12 19:59N 49°18' W 123°08'0 0.0
2017-Oct-12 19:29N 49°18' W 123°08'0 0.0
2017-Oct-12 18:59N 49°18' W 123°08'0 0.0
2017-Oct-12 18:29N 49°18' W 123°08'0 0.0
2017-Oct-12 17:59N 49°18' W 123°08'0 0.0
2017-Oct-12 17:29N 49°18' W 123°08'0 0.0
2017-Oct-12 16:59N 49°18' W 123°08'0 0.0
2017-Oct-12 16:29N 49°18' W 123°08'0 0.0
2017-Oct-12 15:59N 49°18' W 123°08'0 0.0
2017-Oct-12 15:29N 49°18' W 123°08'0 0.0
2017-Oct-12 14:59N 49°18' W 123°08'0 0.0
2017-Oct-12 14:29N 49°18' W 123°08'0 0.0
2017-Oct-12 13:59N 49°18' W 123°08'0 0.0
2017-Oct-12 13:29N 49°18' W 123°08'0 0.0
2017-Oct-12 12:59N 49°18' W 123°08'0 0.0
2017-Oct-12 12:29N 49°18' W 123°08'0 0.0
2017-Oct-12 11:59N 49°18' W 123°08'0 0.0
2017-Oct-12 11:29N 49°18' W 123°08'0 0.0
2017-Oct-12 10:59N 49°18' W 123°08'0 0.0
2017-Oct-12 10:29N 49°18' W 123°08'0 0.0
2017-Oct-12 09:59N 49°18' W 123°08'0 0.0
2017-Oct-12 09:29N 49°18' W 123°08'0 0.0
2017-Oct-12 08:59N 49°18' W 123°08'0 0.0
2017-Oct-12 08:29N 49°18' W 123°08'0 0.0
2017-Oct-12 07:59N 49°18' W 123°08'0 0.0
2017-Oct-12 07:29N 49°18' W 123°08'0 0.0
2017-Oct-12 06:59N 49°18' W 123°08'0 0.0
2017-Oct-12 06:29N 49°18' W 123°08'0 0.0
2017-Oct-12 05:59N 49°18' W 123°08'0 0.0
2017-Oct-12 05:29N 49°18' W 123°08'0 0.0
2017-Oct-12 04:59N 49°18' W 123°08'0 0.0
2017-Oct-12 04:29N 49°18' W 123°08'0 0.0
2017-Oct-12 03:59N 49°18' W 123°08'0 0.0
2017-Oct-12 03:29N 49°18' W 123°08'0 0.0
2017-Oct-12 02:59N 49°18' W 123°08'0 0.0
2017-Oct-12 02:29N 49°18' W 123°08'0 0.0
2017-Oct-12 01:59N 49°18' W 123°08'0 0.0
2017-Oct-12 01:29N 49°18' W 123°08'0 0.0
2017-Oct-12 00:59N 49°18' W 123°08'0 0.0
2017-Oct-12 00:29N 49°18' W 123°08'0 0.0
2017-Oct-11 23:59N 49°18' W 123°08'0 0.0
2017-Oct-11 23:29N 49°18' W 123°08'0 0.0
2017-Oct-11 22:56N 49°18' W 123°08'0 0.0
2017-Oct-11 22:29N 49°18' W 123°08'0 0.0
2017-Oct-11 21:59N 49°18' W 123°08'0 0.0
2017-Oct-11 21:29N 49°18' W 123°08'0 0.0
2017-Oct-11 20:59N 49°18' W 123°08'0 0.0
2017-Oct-11 20:26N 49°18' W 123°08'0 0.0
2017-Oct-11 19:59N 49°18' W 123°08'0 0.0
2017-Oct-11 19:29N 49°18' W 123°08'0 0.0
2017-Oct-11 18:59N 49°18' W 123°08'0 0.0
2017-Oct-11 18:29N 49°18' W 123°08'0 0.0
2017-Oct-11 17:59N 49°18' W 123°08'0 0.0
2017-Oct-11 17:29N 49°18' W 123°08'0 0.0
2017-Oct-11 16:59N 49°18' W 123°08'0 0.0
2017-Oct-10 23:50N 49°18' W 123°08'0 0.0
2017-Oct-10 23:29N 49°18' W 123°08'0 0.0
2017-Oct-10 22:56N 49°18' W 123°08'0 0.0
2017-Oct-10 22:29N 49°18' W 123°08'0 0.0
2017-Oct-10 21:59N 49°18' W 123°08'0 0.0
2017-Oct-10 21:29N 49°18' W 123°08'0 0.0
2017-Oct-10 20:59N 49°18' W 123°08'0 0.0
2017-Oct-10 20:29N 49°18' W 123°08'0 0.0
2017-Oct-10 19:59N 49°18' W 123°08'0 0.0
2017-Oct-10 19:29N 49°18' W 123°08'0 0.0
2017-Oct-10 18:59N 49°18' W 123°08'0 0.0
2017-Oct-10 18:29N 49°18' W 123°08'0 0.0
2017-Oct-10 17:56N 49°18' W 123°08'0 0.0
2017-Oct-10 17:29N 49°18' W 123°08'0 0.0
2017-Oct-10 16:56N 49°18' W 123°08'0 0.0
2017-Oct-10 16:29N 49°18' W 123°08'0 0.0
2017-Oct-10 15:59N 49°18' W 123°08'0 0.0
2017-Oct-10 15:29N 49°18' W 123°08'0 0.0
2017-Oct-10 14:59N 49°18' W 123°08'0 0.0
2017-Oct-10 13:59N 49°18' W 123°08'0 0.0
2017-Oct-10 13:29N 49°18' W 123°08'0 0.0
2017-Oct-10 12:59N 49°18' W 123°08'0 0.0
2017-Oct-10 12:23N 49°18' W 123°08'0 0.0
2017-Oct-10 11:59N 49°18' W 123°08'0 0.0
2017-Oct-10 11:29N 49°18' W 123°08'0 0.0
2017-Oct-10 10:56N 49°18' W 123°08'0 0.0
2017-Oct-10 10:29N 49°18' W 123°08'0 0.0
2017-Oct-10 09:59N 49°18' W 123°08'0 0.0
2017-Oct-10 09:29N 49°18' W 123°08'0 0.0
2017-Oct-10 08:59N 49°18' W 123°08'0 0.0
2017-Oct-10 08:29N 49°18' W 123°08'0 0.0
2017-Oct-10 07:59N 49°18' W 123°08'0 0.0
2017-Oct-10 07:29N 49°18' W 123°08'0 0.0
2017-Oct-10 06:59N 49°18' W 123°08'0 0.0
2017-Oct-10 06:29N 49°18' W 123°08'0 0.0
2017-Oct-10 05:59N 49°18' W 123°08'0 0.0
2017-Oct-10 05:29N 49°18' W 123°08'0 0.0
2017-Oct-10 04:59N 49°18' W 123°08'0 0.0
2017-Oct-10 04:29N 49°18' W 123°08'0 0.0
2017-Oct-10 03:59N 49°18' W 123°08'0 0.0
2017-Oct-10 03:26N 49°18' W 123°08'0 0.0
2017-Oct-10 02:59N 49°18' W 123°08'0 0.0
2017-Oct-10 02:20N 49°18' W 123°08'0 0.0
2017-Oct-10 01:59N 49°18' W 123°08'0 0.0
2017-Oct-10 01:29N 49°18' W 123°08'0 0.0
2017-Oct-10 00:59N 49°18' W 123°08'0 0.0
2017-Oct-10 00:26N 49°18' W 123°08'0 0.0
2017-Oct-09 23:56N 49°18' W 123°08'0 0.0
2017-Oct-09 23:29N 49°18' W 123°08'0 0.0
2017-Oct-09 22:59N 49°18' W 123°08'0 0.0
2017-Oct-09 22:23N 49°18' W 123°08'0 0.0
2017-Oct-09 21:59N 49°18' W 123°08'0 0.0
2017-Oct-09 21:29N 49°18' W 123°08'0 0.0
2017-Oct-09 20:59N 49°18' W 123°08'0 0.0
2017-Oct-09 20:29N 49°18' W 123°08'0 0.0
2017-Oct-09 19:59N 49°18' W 123°08'0 0.0
2017-Oct-09 19:29N 49°18' W 123°08'0 0.0
2017-Oct-09 18:59N 49°18' W 123°08'0 0.0
2017-Oct-09 18:29N 49°18' W 123°08'0 0.0
2017-Oct-09 17:59N 49°18' W 123°08'0 0.0
2017-Oct-09 17:29N 49°18' W 123°08'0 0.0
2017-Oct-09 16:59N 49°18' W 123°08'0 0.0
2017-Oct-09 16:29N 49°18' W 123°08'0 0.0
2017-Oct-09 15:59N 49°18' W 123°08'0 0.0
2017-Oct-09 15:29N 49°18' W 123°08'0 0.0
2017-Oct-09 14:59N 49°18' W 123°08'0 0.0
2017-Oct-09 14:29N 49°18' W 123°08'0 0.0
2017-Oct-09 13:59N 49°18' W 123°08'0 0.0
2017-Oct-09 13:29N 49°18' W 123°08'0 0.0
2017-Oct-09 12:59N 49°18' W 123°08'0 0.0
2017-Oct-09 12:29N 49°18' W 123°08'0 0.0
2017-Oct-09 11:59N 49°18' W 123°08'0 0.0
2017-Oct-09 11:29N 49°18' W 123°08'0 0.0
2017-Oct-09 10:59N 49°18' W 123°08'0 0.0
2017-Oct-09 10:29N 49°18' W 123°08'0 0.0
2017-Oct-09 09:59N 49°18' W 123°08'0 0.0
2017-Oct-09 09:29N 49°18' W 123°08'0 0.0
2017-Oct-09 08:59N 49°18' W 123°08'0 0.0
2017-Oct-09 08:29N 49°18' W 123°08'0 0.0
2017-Oct-09 07:59N 49°18' W 123°08'0 0.0
2017-Oct-09 07:29N 49°18' W 123°08'0 0.0
2017-Oct-09 06:59N 49°18' W 123°08'0 0.0
2017-Oct-09 06:29N 49°18' W 123°08'0 0.0
2017-Oct-09 05:59N 49°18' W 123°08'0 0.0
2017-Oct-09 05:29N 49°18' W 123°08'0 0.0
2017-Oct-09 04:53N 49°18' W 123°08'0 0.0
2017-Oct-09 04:29N 49°18' W 123°08'0 0.0
2017-Oct-09 03:59N 49°18' W 123°08'0 0.0
2017-Oct-09 03:29N 49°18' W 123°08'0 0.0
2017-Oct-09 02:59N 49°18' W 123°08'0 0.0
2017-Oct-09 02:29N 49°18' W 123°08'0 0.0
2017-Oct-09 01:59N 49°18' W 123°08'0 0.0
2017-Oct-09 01:26N 49°18' W 123°08'0 0.0
2017-Oct-09 00:56N 49°18' W 123°08'0 0.0
2017-Oct-09 00:26N 49°18' W 123°08'0 0.0
2017-Oct-08 23:59N 49°18' W 123°08'0 0.0
2017-Oct-08 23:29N 49°18' W 123°08'0 0.0
2017-Oct-08 22:59N 49°18' W 123°08'0 0.0
2017-Oct-08 22:29N 49°18' W 123°08'0 0.0
2017-Oct-08 21:59N 49°18' W 123°08'0 0.0
2017-Oct-08 21:29N 49°18' W 123°08'0 0.0
2017-Oct-08 20:59N 49°18' W 123°08'0 0.0
2017-Oct-08 20:29N 49°18' W 123°08'0 0.0
2017-Oct-08 19:59N 49°18' W 123°08'0 0.0
2017-Oct-08 19:29N 49°18' W 123°08'0 0.0
2017-Oct-08 18:59N 49°18' W 123°08'0 0.0
2017-Oct-08 18:29N 49°18' W 123°08'0 0.0
2017-Oct-08 17:59N 49°18' W 123°08'0 0.0
2017-Oct-08 17:29N 49°18' W 123°08'0 0.0
2017-Oct-08 16:56N 49°18' W 123°08'0 0.0
2017-Oct-08 16:29N 49°18' W 123°08'0 0.0
2017-Oct-08 15:59N 49°18' W 123°08'0 0.0
2017-Oct-08 15:29N 49°18' W 123°08'0 0.0
2017-Oct-08 14:59N 49°18' W 123°08'0 0.0
2017-Oct-08 14:29N 49°18' W 123°08'0 0.0
2017-Oct-08 13:59N 49°18' W 123°08'0 0.0
2017-Oct-08 13:29N 49°18' W 123°08'0 0.0
2017-Oct-08 12:59N 49°18' W 123°08'0 0.0
2017-Oct-08 12:29N 49°18' W 123°08'0 0.0
2017-Oct-08 11:59N 49°18' W 123°08'0 0.0
2017-Oct-08 11:29N 49°18' W 123°08'0 0.0
2017-Oct-08 10:59N 49°18' W 123°08'0 0.0
2017-Oct-08 10:29N 49°18' W 123°08'0 0.0
2017-Oct-08 09:59N 49°18' W 123°08'0 0.0
2017-Oct-08 09:29N 49°18' W 123°08'0 0.0
2017-Oct-08 08:59N 49°18' W 123°08'  

Dump ship's entire track history